sim
Sign-in with your pilot id or email,
or register
Callsign
Passwort

Schedule Details

Flight Number: DLH1814
Departure: Munich Airport (EDDM) at 14:45
Arrival: Barcelona El Prat Airport (LEBL) at 16:45
Route: Lufthansa Passenger Schedule. Enter filed route here before submitting Pirep.

Weather Information
Getting current METAR information for EDDM 192220Z VRB01KT CAVOK 09/08 Q1017 NOSIG
Getting current METAR information for LEBL 192200Z 31005KT 9999 FEW025 22/18 Q1013 NOSIG

Schedule Frequency

Route Map